createdAt,value
2018-03-01T00:01:25.840Z,39.27
2018-03-01T00:03:53.321Z,41.80
2018-03-01T00:06:21.603Z,37.50
2018-03-01T00:08:49.849Z,37.67
2018-03-01T00:11:17.320Z,35.37
2018-03-01T00:13:44.845Z,37.50
2018-03-01T00:16:12.320Z,36.50
2018-03-01T00:18:39.797Z,38.20
2018-03-01T00:21:08.057Z,37.10
2018-03-01T00:23:35.537Z,37.47
2018-03-01T00:26:03.820Z,38.60
2018-03-01T00:28:32.806Z,36.33
2018-03-01T00:31:01.803Z,36.27
2018-03-01T00:33:30.946Z,35.50
2018-03-01T00:35:58.416Z,37.50
2018-03-01T00:38:25.892Z,36.50
2018-03-01T00:40:53.384Z,35.50
2018-03-01T00:43:20.860Z,37.80
2018-03-01T00:45:49.101Z,37.53
2018-03-01T00:48:17.420Z,36.17
2018-03-01T00:50:45.665Z,36.90
2018-03-01T00:53:13.137Z,34.80
2018-03-01T00:55:41.455Z,37.40
2018-03-01T00:58:08.936Z,36.63
2018-03-01T01:00:36.449Z,36.37
2018-03-01T01:03:04.704Z,36.67
2018-03-01T01:05:32.180Z,37.03
2018-03-01T01:08:00.744Z,37.93
2018-03-01T01:10:28.216Z,38.10
2018-03-01T01:12:56.452Z,36.53
2018-03-01T01:15:24.358Z,34.90
2018-03-01T01:17:54.215Z,39.10
2018-03-01T01:20:22.392Z,35.40
2018-03-01T01:22:50.343Z,41.73
2018-03-01T01:25:17.823Z,38.37
2018-03-01T01:27:45.789Z,38.77
2018-03-01T01:30:14.162Z,39.60
2018-03-01T01:32:41.834Z,37.13
2018-03-01T01:35:10.167Z,37.80
2018-03-01T01:37:38.405Z,39.00
2018-03-01T01:40:06.285Z,38.20
2018-03-01T01:42:34.040Z,43.40
2018-03-01T01:45:02.057Z,38.83
2018-03-01T01:47:30.997Z,40.60
2018-03-01T01:49:59.312Z,42.80
2018-03-01T01:52:28.296Z,39.70
2018-03-01T01:54:55.872Z,43.23
2018-03-01T01:57:25.281Z,41.00
2018-03-01T01:59:53.799Z,41.43
2018-03-01T02:02:21.272Z,40.57
2018-03-01T02:04:48.829Z,45.20
2018-03-01T02:07:16.302Z,43.30
2018-03-01T02:09:43.775Z,45.60
2018-03-01T02:12:12.779Z,42.70
2018-03-01T02:14:41.766Z,42.40
2018-03-01T02:17:09.300Z,41.00
2018-03-01T02:19:36.810Z,41.60
2018-03-01T02:22:05.084Z,41.80
2018-03-01T02:24:34.016Z,40.07
2018-03-01T02:27:02.205Z,41.87
2018-03-01T02:29:29.683Z,41.37
2018-03-01T02:31:57.171Z,42.80
2018-03-01T02:34:25.420Z,41.57
2018-03-01T02:36:52.939Z,40.47
2018-03-01T02:39:20.430Z,40.90
2018-03-01T02:41:47.917Z,36.87
2018-03-01T02:44:16.213Z,40.00
2018-03-01T02:46:44.448Z,41.03
2018-03-01T02:49:11.928Z,43.00
2018-03-01T02:51:40.238Z,41.53
2018-03-01T02:54:07.721Z,44.47
2018-03-01T02:56:35.197Z,42.57
2018-03-01T02:59:02.744Z,43.83
2018-03-01T03:01:30.223Z,46.30
2018-03-01T03:03:57.728Z,44.07
2018-03-01T03:06:25.228Z,45.87
2018-03-01T03:08:52.701Z,45.23
2018-03-01T03:11:20.194Z,48.73
2018-03-01T03:13:48.505Z,44.80
2018-03-01T03:16:15.981Z,43.80
2018-03-01T03:18:43.456Z,47.80
2018-03-01T03:21:10.997Z,51.37
2018-03-01T03:23:38.477Z,48.80
2018-03-01T03:26:05.960Z,49.47
2018-03-01T03:28:34.237Z,50.27
2018-03-01T03:31:02.481Z,47.60
2018-03-01T03:33:29.959Z,53.30
2018-03-01T03:35:58.245Z,49.93
2018-03-01T03:38:26.488Z,50.10
2018-03-01T03:40:53.972Z,47.67
2018-03-01T03:43:22.988Z,52.70
2018-03-01T03:45:51.234Z,51.30
2018-03-01T03:48:18.717Z,52.33
2018-03-01T03:50:47.092Z,50.00
2018-03-01T03:53:15.369Z,48.90
2018-03-01T03:55:43.614Z,48.90
2018-03-01T03:58:11.100Z,52.07
2018-03-01T04:00:39.389Z,58.43
2018-03-01T04:03:07.821Z,52.97
2018-03-01T04:05:35.424Z,48.93
2018-03-01T04:08:03.660Z,48.37
2018-03-01T04:10:31.181Z,50.43
2018-03-01T04:12:58.660Z,51.43
2018-03-01T04:15:26.146Z,51.10
2018-03-01T04:17:53.657Z,49.70
2018-03-01T04:20:21.900Z,53.03
2018-03-01T04:22:49.415Z,49.17
2018-03-01T04:25:16.976Z,51.73
2018-03-01T04:27:44.464Z,52.30
2018-03-01T04:30:11.973Z,48.10
2018-03-01T04:32:40.213Z,49.60
2018-03-01T04:35:07.701Z,52.30
2018-03-01T04:37:36.585Z,49.77
2018-03-01T04:40:04.857Z,50.93
2018-03-01T04:42:33.106Z,50.13
2018-03-01T04:45:00.610Z,50.20
2018-03-01T04:47:28.858Z,49.67
2018-03-01T04:49:56.336Z,52.77
2018-03-01T04:52:24.602Z,51.23
2018-03-01T04:54:52.853Z,50.37
2018-03-01T04:57:20.382Z,50.17
2018-03-01T04:59:47.864Z,51.80
2018-03-01T05:02:15.364Z,55.73
2018-03-01T05:04:43.636Z,52.77
2018-03-01T05:07:11.940Z,52.87
2018-03-01T05:09:39.481Z,50.27
2018-03-01T05:12:07.736Z,51.07
2018-03-01T05:14:35.212Z,54.47
2018-03-01T05:17:03.482Z,52.00
2018-03-01T05:19:31.747Z,54.43
2018-03-01T05:21:59.329Z,56.50
2018-03-01T05:24:27.601Z,51.10
2018-03-01T05:26:55.880Z,51.60
2018-03-01T05:29:24.131Z,54.40
2018-03-01T05:31:52.416Z,56.70
2018-03-01T05:34:19.900Z,55.30
2018-03-01T05:36:48.157Z,49.57
2018-03-01T05:39:15.661Z,54.80
2018-03-01T05:41:43.142Z,52.73
2018-03-01T05:44:10.637Z,52.53
2018-03-01T05:46:38.896Z,54.07
2018-03-01T05:49:06.380Z,52.80
2018-03-01T05:51:34.640Z,54.00
2018-03-01T05:54:02.126Z,50.83
2018-03-01T05:56:30.912Z,52.63
2018-03-01T05:58:59.180Z,54.37
2018-03-01T06:01:27.423Z,51.73
2018-03-01T06:03:54.908Z,53.13
2018-03-01T06:06:22.400Z,54.60
2018-03-01T06:08:49.877Z,54.33
2018-03-01T06:11:17.389Z,56.93
2018-03-01T06:13:44.961Z,56.90
2018-03-01T06:16:13.214Z,54.37
2018-03-01T06:18:40.713Z,59.30
2018-03-01T06:21:08.953Z,57.30
2018-03-01T06:23:36.512Z,53.70
2018-03-01T06:26:04.005Z,54.17
2018-03-01T06:28:32.254Z,53.87
2018-03-01T06:30:59.756Z,54.20
2018-03-01T06:33:27.237Z,55.97
2018-03-01T06:35:54.708Z,51.13
2018-03-01T06:38:22.221Z,54.07
2018-03-01T06:40:50.465Z,51.47
2018-03-01T06:43:17.977Z,53.33
2018-03-01T06:45:45.464Z,56.57
2018-03-01T06:48:12.941Z,52.70
2018-03-01T06:50:40.444Z,49.27
2018-03-01T06:53:07.917Z,54.50
2018-03-01T06:55:35.392Z,52.50
2018-03-01T06:58:02.902Z,51.80
2018-03-01T07:00:31.145Z,52.90
2018-03-01T07:02:58.628Z,51.93
2018-03-01T07:05:26.897Z,53.30
2018-03-01T07:07:54.376Z,52.07
2018-03-01T07:10:22.625Z,54.33
2018-03-01T07:12:50.765Z,49.83
2018-03-01T07:15:18.246Z,53.57
2018-03-01T07:17:45.729Z,53.70
2018-03-01T07:20:14.030Z,51.13
2018-03-01T07:22:42.268Z,48.70
2018-03-01T07:25:09.748Z,52.53
2018-03-01T07:27:38.887Z,49.17
2018-03-01T07:30:06.370Z,55.40
2018-03-01T07:32:33.866Z,50.83
2018-03-01T07:35:02.149Z,54.07
2018-03-01T07:37:30.409Z,50.80
2018-03-01T07:39:57.957Z,48.30
2018-03-01T07:42:25.696Z,48.70
2018-03-01T07:44:53.571Z,51.50
2018-03-01T07:47:21.076Z,46.37
2018-03-01T07:49:49.328Z,51.17
2018-03-01T07:52:16.860Z,49.80
2018-03-01T07:54:44.395Z,50.13
2018-03-01T07:57:12.037Z,51.63
2018-03-01T07:59:40.364Z,49.73
2018-03-01T08:02:07.928Z,50.03
2018-03-01T08:04:35.879Z,49.20
2018-03-01T08:07:03.648Z,47.40
2018-03-01T08:09:31.180Z,48.63
2018-03-01T08:11:59.463Z,50.17
2018-03-01T08:14:27.068Z,52.67
2018-03-01T08:16:54.580Z,49.47
2018-03-01T08:19:22.065Z,52.20
2018-03-01T08:21:49.592Z,50.90
2018-03-01T08:24:17.841Z,51.67
2018-03-01T08:26:45.325Z,54.37
2018-03-01T08:29:13.593Z,50.40
2018-03-01T08:31:41.841Z,51.33
2018-03-01T08:34:09.372Z,50.57
2018-03-01T08:36:36.898Z,50.50
2018-03-01T08:39:05.318Z,53.77
2018-03-01T08:41:32.943Z,53.97
2018-03-01T08:44:01.204Z,50.47
2018-03-01T08:46:29.453Z,49.90
2018-03-01T08:48:56.950Z,50.13
2018-03-01T08:51:25.193Z,49.13
2018-03-01T08:53:52.759Z,52.30
2018-03-01T08:56:20.237Z,50.10
2018-03-01T08:58:48.508Z,50.80
2018-03-01T09:01:16.039Z,49.00
2018-03-01T09:03:43.541Z,51.63
2018-03-01T09:06:11.814Z,50.50
2018-03-01T09:08:40.078Z,53.53
2018-03-01T09:11:07.556Z,50.43
2018-03-01T09:13:35.809Z,52.07
2018-03-01T09:16:03.308Z,47.63
2018-03-01T09:18:31.562Z,52.07
2018-03-01T09:20:59.812Z,50.20
2018-03-01T09:23:27.321Z,47.77
2018-03-01T09:25:54.809Z,47.10
2018-03-01T09:28:22.316Z,47.83
2018-03-01T09:30:50.584Z,49.37
2018-03-01T09:33:18.061Z,46.90
2018-03-01T09:35:46.328Z,48.83
2018-03-01T09:38:14.585Z,49.80
2018-03-01T09:40:42.070Z,46.17
2018-03-01T09:43:10.336Z,46.43
2018-03-01T09:45:38.581Z,43.67
2018-03-01T09:48:06.062Z,44.93
2018-03-01T09:50:33.565Z,45.67
2018-03-01T09:53:01.044Z,50.57
2018-03-01T09:55:28.514Z,49.20
2018-03-01T09:57:56.008Z,49.20
2018-03-01T10:00:25.012Z,49.00
2018-03-01T10:02:53.264Z,46.47
2018-03-01T10:05:20.766Z,46.27
2018-03-01T10:07:48.245Z,51.10
2018-03-01T10:10:15.729Z,47.40
2018-03-01T10:12:43.232Z,45.77
2018-03-01T10:15:11.472Z,45.20
2018-03-01T10:17:38.953Z,45.30
2018-03-01T10:20:07.788Z,47.73
2018-03-01T10:22:35.656Z,43.60
2018-03-01T10:25:03.187Z,43.00
2018-03-01T10:27:31.433Z,46.37
2018-03-01T10:29:58.913Z,46.43
2018-03-01T10:32:27.182Z,47.50
2018-03-01T10:34:55.438Z,45.13
2018-03-01T10:37:22.923Z,46.27
2018-03-01T10:39:51.185Z,47.30
2018-03-01T10:42:18.670Z,48.03
2018-03-01T10:44:46.931Z,45.20
2018-03-01T10:47:15.945Z,50.00
2018-03-01T10:49:44.191Z,44.27
2018-03-01T10:52:11.688Z,46.30
2018-03-01T10:54:40.149Z,51.20
2018-03-01T10:57:08.426Z,46.00
2018-03-01T10:59:36.738Z,46.43
2018-03-01T11:02:04.301Z,47.57
2018-03-01T11:04:33.557Z,48.97
2018-03-01T11:07:02.428Z,47.77
2018-03-01T11:09:29.912Z,50.40
2018-03-01T11:11:58.192Z,48.97
2018-03-01T11:14:26.442Z,48.43
2018-03-01T11:16:53.925Z,49.07
2018-03-01T11:19:21.432Z,44.03
2018-03-01T11:21:48.913Z,53.63
2018-03-01T11:24:16.402Z,54.60
2018-03-01T11:26:44.659Z,47.83
2018-03-01T11:29:12.167Z,49.87
2018-03-01T11:31:40.426Z,45.00
2018-03-01T11:34:08.675Z,47.40
2018-03-01T11:36:36.208Z,43.77
2018-03-01T11:39:03.672Z,48.50
2018-03-01T11:41:31.157Z,48.00
2018-03-01T11:43:58.632Z,51.90
2018-03-01T11:46:26.894Z,46.27
2018-03-01T11:48:54.384Z,71.17
2018-03-01T11:51:22.569Z,55.67
2018-03-01T11:53:51.316Z,50.83
2018-03-01T11:56:19.369Z,48.37
2018-03-01T11:58:47.049Z,47.00
2018-03-01T12:01:15.283Z,48.97
2018-03-01T12:03:43.334Z,54.87
2018-03-01T12:06:11.862Z,55.43
2018-03-01T12:08:40.388Z,58.67
2018-03-01T12:11:10.688Z,48.27
2018-03-01T12:13:38.496Z,53.13
2018-03-01T12:16:06.537Z,57.13
2018-03-01T12:18:35.188Z,56.93
2018-03-01T12:21:03.532Z,61.20
2018-03-01T12:23:31.444Z,57.33
2018-03-01T12:25:59.432Z,54.20
2018-03-01T12:28:27.132Z,54.90
2018-03-01T12:30:55.204Z,58.93
2018-03-01T12:33:23.946Z,55.77
2018-03-01T12:35:52.342Z,50.47
2018-03-01T12:38:20.184Z,47.57
2018-03-01T12:40:49.052Z,56.40
2018-03-01T12:43:17.941Z,51.97
2018-03-01T12:45:46.688Z,51.00
2018-03-01T12:48:14.601Z,50.27
2018-03-01T12:50:43.185Z,50.47
2018-03-01T12:53:10.884Z,54.17
2018-03-01T12:55:39.380Z,51.90
2018-03-01T12:58:07.689Z,50.73
2018-03-01T13:00:35.589Z,51.47
2018-03-01T13:03:03.326Z,52.17
2018-03-01T13:05:31.977Z,51.30
2018-03-01T13:07:59.564Z,53.10
2018-03-01T13:10:38.315Z,49.57
2018-03-01T13:13:05.805Z,52.47
2018-03-01T13:15:34.090Z,49.47
2018-03-01T13:18:03.405Z,52.43
2018-03-01T13:20:31.918Z,55.37
2018-03-01T13:23:00.674Z,57.30
2018-03-01T13:25:28.891Z,50.53
2018-03-01T13:27:57.111Z,53.37
2018-03-01T13:33:26.938Z,53.60
2018-03-01T13:35:54.682Z,53.00
2018-03-01T13:38:22.924Z,55.07
2018-03-01T13:40:51.844Z,55.67
2018-03-01T13:43:23.450Z,56.70
2018-03-01T13:45:56.197Z,52.50
2018-03-01T13:48:23.980Z,52.87
2018-03-01T13:50:51.950Z,48.33
2018-03-01T13:53:20.020Z,52.83
2018-03-01T13:55:48.166Z,52.33
2018-03-01T13:58:16.931Z,51.47
2018-03-01T14:00:45.302Z,53.57
2018-03-01T14:03:13.681Z,52.00
2018-03-01T14:05:57.676Z,54.37
2018-03-01T14:08:26.040Z,49.77
2018-03-01T14:10:54.270Z,52.40
2018-03-01T14:13:23.630Z,50.63
2018-03-01T14:15:51.656Z,53.87
2018-03-01T14:18:24.112Z,47.67
2018-03-01T14:20:58.988Z,50.07
2018-03-01T14:23:32.392Z,52.07
2018-03-01T14:26:04.971Z,47.07
2018-03-01T14:28:38.677Z,52.10
2018-03-01T14:31:07.213Z,50.03
2018-03-01T14:33:36.768Z,54.30
2018-03-01T14:36:05.877Z,53.57
2018-03-01T14:38:34.133Z,52.00
2018-03-01T14:41:03.112Z,56.63
2018-03-01T14:43:32.217Z,52.20
2018-03-01T14:46:00.277Z,51.80
2018-03-01T14:48:28.381Z,56.00
2018-03-01T14:50:56.347Z,51.83
2018-03-01T14:53:24.215Z,51.70
2018-03-01T14:55:52.455Z,54.00
2018-03-01T14:58:20.876Z,52.40
2018-03-01T15:00:48.356Z,51.00
2018-03-01T15:03:15.861Z,50.87
2018-03-01T15:05:44.100Z,52.47
2018-03-01T15:08:11.624Z,50.80
2018-03-01T15:10:39.845Z,49.07
2018-03-01T15:13:07.328Z,53.53
2018-03-01T15:15:35.596Z,53.50
2018-03-01T15:18:04.519Z,50.93
2018-03-01T15:20:32.409Z,50.00
2018-03-01T15:23:00.131Z,50.30
2018-03-01T15:25:28.369Z,54.23
2018-03-01T15:27:55.847Z,54.17
2018-03-01T15:30:24.116Z,50.30
2018-03-01T15:32:52.489Z,48.67
2018-03-01T15:35:20.064Z,50.50
2018-03-01T15:37:48.154Z,48.93
2018-03-01T15:40:15.911Z,49.40
2018-03-01T15:42:44.438Z,49.20
2018-03-01T15:45:11.945Z,48.60
2018-03-01T15:47:39.429Z,48.17
2018-03-01T15:50:07.681Z,48.67
2018-03-01T15:52:35.962Z,48.10
2018-03-01T15:55:04.209Z,49.70
2018-03-01T15:57:31.688Z,47.77
2018-03-01T15:59:59.956Z,47.23
2018-03-01T16:02:29.884Z,46.70
2018-03-01T16:04:58.315Z,49.33
2018-03-01T16:07:26.827Z,45.53
2018-03-01T16:09:54.998Z,50.67
2018-03-01T16:12:22.481Z,45.80
2018-03-01T16:15:03.509Z,47.47
2018-03-01T16:17:31.037Z,47.40
2018-03-01T16:19:58.917Z,44.30
2018-03-01T16:22:27.169Z,47.30
2018-03-01T16:24:54.649Z,47.90
2018-03-01T16:27:22.891Z,44.67
2018-03-01T16:29:51.605Z,46.80
2018-03-01T16:32:19.876Z,44.23
2018-03-01T16:34:48.119Z,43.97
2018-03-01T16:37:15.621Z,39.67
2018-03-01T16:39:43.865Z,43.47
2018-03-01T16:42:11.349Z,44.20
2018-03-01T16:44:38.853Z,41.40
2018-03-01T16:47:06.346Z,44.17
2018-03-01T16:49:34.592Z,45.47
2018-03-01T16:52:02.132Z,47.97
2018-03-01T16:54:29.613Z,47.33
2018-03-01T16:56:57.084Z,45.77
2018-03-01T16:59:24.582Z,48.93
2018-03-01T17:01:52.833Z,45.60
2018-03-01T17:04:20.314Z,43.17
2018-03-01T17:06:47.801Z,39.13
2018-03-01T17:09:15.275Z,38.50
2018-03-01T17:11:42.796Z,41.20
2018-03-01T17:14:11.047Z,41.87
2018-03-01T17:16:38.524Z,39.70
2018-03-01T17:19:06.023Z,39.83
2018-03-01T17:21:33.508Z,41.80
2018-03-01T17:24:00.987Z,43.07
2018-03-01T17:26:28.578Z,40.93
2018-03-01T17:28:56.837Z,39.10
2018-03-01T17:31:24.500Z,38.23
2018-03-01T17:33:52.927Z,36.93
2018-03-01T17:36:20.452Z,40.00
2018-03-01T17:38:48.697Z,39.97
2018-03-01T17:41:16.200Z,42.73
2018-03-01T17:43:44.449Z,38.27
2018-03-01T17:46:12.696Z,40.77
2018-03-01T17:48:40.192Z,37.67
2018-03-01T17:51:07.673Z,39.20
2018-03-01T17:53:35.913Z,37.50
2018-03-01T17:56:04.165Z,39.47
2018-03-01T17:58:31.648Z,38.60
2018-03-01T18:00:59.148Z,38.90
2018-03-01T18:03:26.625Z,41.00
2018-03-01T18:05:54.151Z,41.70
2018-03-01T18:08:22.422Z,40.20
2018-03-01T18:10:50.668Z,40.47
2018-03-01T18:13:18.677Z,43.27
2018-03-01T18:15:46.916Z,39.03
2018-03-01T18:18:16.091Z,41.90
2018-03-01T18:20:43.601Z,45.10
2018-03-01T18:23:11.854Z,43.43
2018-03-01T18:25:39.338Z,43.43
2018-03-01T18:28:07.619Z,47.40
2018-03-01T18:30:35.893Z,47.37
2018-03-01T18:33:04.133Z,47.77
2018-03-01T18:35:31.614Z,45.07
2018-03-01T18:37:59.105Z,42.60
2018-03-01T18:40:26.620Z,43.73
2018-03-01T18:42:54.108Z,40.33
2018-03-01T18:45:23.069Z,40.00
2018-03-01T18:47:50.914Z,41.67
2018-03-01T18:50:19.183Z,42.57
2018-03-01T18:52:47.947Z,39.93
2018-03-01T18:55:16.620Z,41.27
2018-03-01T18:57:44.873Z,38.87
2018-03-01T19:00:12.422Z,44.90
2018-03-01T19:02:39.916Z,45.67
2018-03-01T19:05:08.173Z,43.63
2018-03-01T19:07:35.677Z,44.47
2018-03-01T19:10:03.164Z,41.33
2018-03-01T19:12:30.776Z,41.17
2018-03-01T19:14:59.029Z,47.60
2018-03-01T19:17:26.982Z,41.63
2018-03-01T19:19:55.953Z,44.13
2018-03-01T19:22:24.202Z,42.00
2018-03-01T19:24:53.124Z,40.03
2018-03-01T19:27:21.179Z,42.53
2018-03-01T19:29:49.284Z,43.10
2018-03-01T19:32:17.604Z,43.80
2018-03-01T19:34:45.845Z,43.07
2018-03-01T19:37:13.336Z,43.10
2018-03-01T19:39:41.609Z,44.77
2018-03-01T19:42:09.859Z,43.77
2018-03-01T19:44:37.460Z,44.60
2018-03-01T19:47:05.711Z,42.23
2018-03-01T19:49:33.197Z,46.40
2018-03-01T19:52:01.464Z,45.03
2018-03-01T19:54:29.708Z,47.00
2018-03-01T19:56:57.184Z,44.80
2018-03-01T19:59:24.684Z,43.70
2018-03-01T20:01:52.922Z,48.13
2018-03-01T20:04:20.411Z,41.10
2018-03-01T20:06:48.672Z,49.47
2018-03-01T20:09:17.488Z,42.13
2018-03-01T20:11:45.731Z,40.60
2018-03-01T20:14:13.985Z,41.70
2018-03-01T20:16:41.958Z,42.60
2018-03-01T20:19:09.448Z,42.30
2018-03-01T20:21:37.697Z,41.90
2018-03-01T20:24:05.201Z,38.53
2018-03-01T20:26:33.460Z,45.13
2018-03-01T20:29:01.701Z,48.10
2018-03-01T20:31:29.184Z,40.83
2018-03-01T20:33:56.661Z,39.80
2018-03-01T20:36:24.936Z,38.07
2018-03-01T20:38:53.189Z,42.57
2018-03-01T20:41:20.673Z,38.37
2018-03-01T20:43:48.932Z,40.60
2018-03-01T20:46:16.412Z,42.63
2018-03-01T20:48:44.659Z,42.37
2018-03-01T20:51:12.178Z,40.50
2018-03-01T20:53:40.053Z,41.70
2018-03-01T20:56:08.124Z,40.50
2018-03-01T20:58:36.681Z,43.00
2018-03-01T21:01:05.804Z,44.43
2018-03-01T21:03:33.280Z,41.77
2018-03-01T21:06:00.785Z,42.53
2018-03-01T21:08:29.862Z,44.90
2018-03-01T21:10:58.014Z,46.97
2018-03-01T21:13:25.890Z,44.80
2018-03-01T21:15:53.934Z,42.37
2018-03-01T21:18:21.428Z,44.67
2018-03-01T21:20:49.633Z,47.67
2018-03-01T21:23:17.873Z,46.47
2018-03-01T21:25:45.365Z,46.20
2018-03-01T21:28:13.641Z,49.07
2018-03-01T21:30:41.889Z,46.77
2018-03-01T21:33:09.393Z,46.60
2018-03-01T21:35:37.637Z,48.50
2018-03-01T21:38:05.895Z,47.83
2018-03-01T21:40:33.405Z,50.17
2018-03-01T21:43:01.648Z,53.27
2018-03-01T21:45:29.124Z,50.53
2018-03-01T21:47:57.390Z,52.43
2018-03-01T21:50:24.863Z,50.60
2018-03-01T21:52:53.116Z,51.53
2018-03-01T21:55:20.613Z,52.43
2018-03-01T21:57:48.103Z,55.10
2018-03-01T22:00:15.613Z,53.27
2018-03-01T22:02:43.856Z,55.57
2018-03-01T22:05:11.337Z,59.67
2018-03-01T22:07:38.846Z,58.27
2018-03-01T22:10:06.349Z,61.20
2018-03-01T22:12:34.598Z,59.00
2018-03-01T22:15:02.097Z,56.43
2018-03-01T22:17:30.734Z,57.20
2018-03-01T22:19:58.212Z,53.20
2018-03-01T22:22:25.708Z,49.67
2018-03-01T22:24:53.990Z,45.10
2018-03-01T22:27:22.225Z,47.57
2018-03-01T22:29:49.738Z,52.80
2018-03-01T22:32:17.997Z,51.60
2018-03-01T22:34:46.243Z,51.60
2018-03-01T22:37:13.728Z,53.33
2018-03-01T22:39:42.007Z,57.30
2018-03-01T22:42:10.266Z,59.60
2018-03-01T22:44:37.753Z,54.53
2018-03-01T22:47:06.021Z,58.40
2018-03-01T22:49:34.264Z,63.20
2018-03-01T22:52:01.741Z,58.70
2018-03-01T22:54:29.245Z,61.90
2018-03-01T22:56:56.717Z,58.80
2018-03-01T22:59:24.194Z,60.03
2018-03-01T23:01:51.692Z,58.07
2018-03-01T23:04:19.932Z,54.50
2018-03-01T23:06:47.434Z,55.53
2018-03-01T23:09:15.684Z,60.20
2018-03-01T23:11:43.170Z,54.53
2018-03-01T23:14:11.441Z,64.77
2018-03-01T23:16:39.688Z,58.90
2018-03-01T23:19:07.178Z,59.87
2018-03-01T23:21:35.449Z,57.57
2018-03-01T23:24:04.433Z,60.00
2018-03-01T23:26:31.913Z,59.10
2018-03-01T23:29:00.179Z,57.00
2018-03-01T23:31:28.426Z,56.87
2018-03-01T23:33:55.920Z,59.27
2018-03-01T23:36:24.181Z,56.60
2018-03-01T23:38:51.662Z,58.17
2018-03-01T23:41:19.908Z,56.30
2018-03-01T23:43:47.410Z,54.90
2018-03-01T23:46:15.661Z,57.47
2018-03-01T23:48:44.670Z,54.67
2018-03-01T23:51:12.983Z,58.40
2018-03-01T23:53:40.464Z,55.60
2018-03-01T23:56:07.950Z,53.40
2018-03-01T23:58:35.533Z,57.70
